Time;durP1;ratioP1;P1;durP2;ratioP2;P2;SDS_P1;SDS_P2;PMS_P1;PMS_P2;Temp;Humidity;BMP_temperature;BMP_pressure;BME280_temperature;BME280_humidity;BME280_pressure;Samples;Min_cycle;Max_cycle;Signal;HPM_P1;HPM_P2
2021/03/05 00:00:57;;;;;;;0.70;0.70;;;;;;;6.49;76.12;96891.19;299395;216;63009;-57
2021/03/05 00:05:58;;;;;;;0.65;0.65;;;;;;;6.53;76.38;96896.84;299395;362;63000;-57
2021/03/05 00:10:59;;;;;;;0.70;0.70;;;;;;;6.48;73.44;96923.78;299395;302;63009;-57
2021/03/05 00:16:00;;;;;;;0.82;0.82;;;;;;;5.88;73.72;96934.06;299395;218;63005;-57
2021/03/05 00:21:01;;;;;;;1.27;1.27;;;;;;;5.69;73.62;96930.16;299395;218;63009;-58
2021/03/05 00:26:02;;;;;;;1.23;1.23;;;;;;;5.43;73.74;96936.47;299394;216;64009;-58
2021/03/05 00:31:03;;;;;;;1.37;1.08;;;;;;;5.15;74.25;96935.72;299395;307;63009;-58
2021/03/05 00:36:05;;;;;;;2.03;1.92;;;;;;;4.96;74.50;96935.28;299395;229;63000;-60
2021/03/05 00:41:06;;;;;;;0.90;0.90;;;;;;;4.87;74.78;96944.87;299395;204;63009;-57
2021/03/05 00:46:07;;;;;;;0.90;0.90;;;;;;;4.78;75.62;96951.00;299395;202;63005;-61
2021/03/05 00:51:08;;;;;;;0.70;0.70;;;;;;;4.63;75.29;96960.50;299395;225;63008;-56
2021/03/05 00:56:09;;;;;;;1.37;1.30;;;;;;;4.59;75.56;96967.44;299395;202;63004;-58
2021/03/05 01:01:10;;;;;;;0.75;0.75;;;;;;;4.33;76.44;96961.00;299395;227;63009;-58
2021/03/05 01:06:11;;;;;;;1.80;1.70;;;;;;;4.21;76.30;96978.28;299395;248;63004;-56
2021/03/05 01:11:12;;;;;;;1.20;1.20;;;;;;;4.04;77.28;96978.38;299395;196;63009;-57
2021/03/05 01:16:13;;;;;;;1.20;1.10;;;;;;;3.90;78.11;96971.72;299395;227;63005;-58
2021/03/05 01:21:14;;;;;;;1.92;1.83;;;;;;;3.82;77.49;96994.44;299395;199;63008;-58
2021/03/05 01:26:15;;;;;;;2.75;1.77;;;;;;;3.64;78.28;96994.72;299395;244;63004;-57
2021/03/05 01:31:16;;;;;;;1.77;1.55;;;;;;;3.65;78.06;96996.34;299395;218;63009;-59
2021/03/05 01:36:17;;;;;;;2.40;2.15;;;;;;;3.62;77.04;97003.00;299395;223;63004;-58
2021/03/05 01:41:18;;;;;;;1.90;1.60;;;;;;;3.41;77.75;97001.09;299395;209;63009;-58
2021/03/05 01:46:21;;;;;;;1.77;1.70;;;;;;;3.34;77.95;97001.25;299395;297;63005;-55
2021/03/05 01:51:24;;;;;;;2.70;1.70;;;;;;;3.35;78.11;97002.88;299395;230;63008;-53
2021/03/05 01:56:42;;;;;;;0.70;0.70;;;;;;;3.41;77.95;97013.69;299395;229;63004;-56
2021/03/05 02:01:43;;;;;;;1.80;1.70;;;;;;;3.15;79.40;97007.88;299395;287;63017;-57
2021/03/05 02:06:45;;;;;;;0.85;0.85;;;;;;;3.32;78.83;97008.72;299395;223;63005;-56
2021/03/05 02:11:46;;;;;;;1.98;1.87;;;;;;;3.22;79.09;97002.38;299395;217;63009;-56
2021/03/05 02:17:15;;;;;;;0.80;0.80;;;;;;;2.78;80.68;97012.06;299395;220;63005;-57
2021/03/05 02:22:50;;;;;;;0.70;0.70;;;;;;;2.89;80.38;97012.00;299395;226;63009;-57
2021/03/05 02:28:27;;;;;;;1.17;1.17;;;;;;;3.21;78.71;97023.00;299395;328;63010;-57
2021/03/05 02:33:36;;;;;;;0.70;0.70;;;;;;;2.94;80.31;97022.00;299395;229;63004;-57
2021/03/05 02:38:41;;;;;;;0.70;0.70;;;;;;;3.17;79.19;97032.59;299395;263;63009;-57
2021/03/05 02:43:43;;;;;;;0.70;0.70;;;;;;;2.84;80.33;97045.94;299395;196;63004;-58
2021/03/05 02:48:47;;;;;;;0.80;0.80;;;;;;;3.00;79.46;97047.84;299395;226;63009;-56
2021/03/05 02:53:50;;;;;;;0.75;0.75;;;;;;;3.16;78.11;97033.66;299395;224;63005;-58
2021/03/05 02:58:55;;;;;;;0.80;0.80;;;;;;;3.16;77.81;97041.69;299395;219;63008;-60
2021/03/05 03:03:58;;;;;;;0.70;0.70;;;;;;;2.88;78.85;97050.59;299417;265;63004;-57
2021/03/05 03:09:03;;;;;;;0.80;0.80;;;;;;;3.06;78.86;97052.25;299395;231;63009;-55
2021/03/05 03:14:04;;;;;;;;;;;;;;;3.01;78.22;97060.22;299996;983;6000;-56
2021/03/05 03:19:14;;;;;;;0.70;0.70;;;;;;;2.79;79.51;97059.22;299400;224;63004;-57
2021/03/05 03:24:15;;;;;;;2.12;2.03;;;;;;;2.96;78.99;97073.50;299395;215;63009;-57
2021/03/05 03:29:17;;;;;;;1.10;1.10;;;;;;;2.92;78.91;97070.50;299395;370;63005;-57
2021/03/05 03:34:20;;;;;;;0.80;0.80;;;;;;;2.91;78.98;97076.91;299395;224;63009;-55
2021/03/05 03:39:24;;;;;;;0.80;0.80;;;;;;;2.87;79.27;97085.66;299395;196;63005;-58
2021/03/05 03:44:25;;;;;;;0.80;0.80;;;;;;;2.84;79.84;97080.78;299377;356;125018;-55
2021/03/05 03:49:37;;;;;;;1.02;1.02;;;;;;;2.87;79.26;97086.47;299395;263;63000;-58
2021/03/05 03:54:38;;;;;;;1.23;1.23;;;;;;;2.86;79.20;97084.03;299395;242;63005;-56
2021/03/05 03:59:40;;;;;;;0.90;0.90;;;;;;;2.76;79.71;97089.22;299395;218;63000;-56
2021/03/05 04:04:41;;;;;;;0.80;0.80;;;;;;;2.63;79.96;97091.09;299395;231;63004;-56
2021/03/05 04:09:43;;;;;;;1.12;1.12;;;;;;;2.67;79.84;97091.44;299395;339;63000;-56
2021/03/05 04:14:45;;;;;;;1.05;1.05;;;;;;;2.64;80.03;97092.75;299395;232;63005;-57
2021/03/05 04:19:47;;;;;;;0.90;0.90;;;;;;;2.63;80.35;97091.09;299395;292;63000;-56
2021/03/05 04:24:49;;;;;;;1.10;1.10;;;;;;;2.58;80.56;97092.88;299395;225;63004;-55
2021/03/05 04:29:50;;;;;;;1.02;1.02;;;;;;;2.46;81.03;97106.28;299395;223;63000;-55
2021/03/05 04:34:51;;;;;;;0.88;0.88;;;;;;;2.49;80.06;97108.47;299395;247;63004;-56
2021/03/05 04:39:52;;;;;;;0.80;0.80;;;;;;;2.40;81.36;97109.91;299395;374;63000;-56
2021/03/05 04:44:53;;;;;;;1.35;1.30;;;;;;;2.46;80.51;97105.47;299395;210;63005;-53
2021/03/05 04:49:54;;;;;;;0.80;0.80;;;;;;;2.38;81.42;97114.69;299395;241;63000;-56
2021/03/05 04:54:55;;;;;;;0.80;0.80;;;;;;;2.42;80.89;97117.72;299395;292;63004;-55
2021/03/05 04:59:56;;;;;;;2.85;1.92;;;;;;;2.45;80.28;97111.87;299395;214;63000;-55
2021/03/05 05:04:57;;;;;;;1.33;1.23;;;;;;;2.38;80.68;97114.69;299395;225;63004;-56
2021/03/05 05:09:58;;;;;;;0.80;0.80;;;;;;;2.37;80.77;97122.97;299395;218;63000;-55
2021/03/05 05:14:59;;;;;;;0.70;0.70;;;;;;;2.24;81.13;97124.81;299395;218;63009;-57
2021/03/05 05:20:00;;;;;;;1.45;1.35;;;;;;;2.31;80.97;97130.06;299395;235;63004;-56
2021/03/05 05:25:03;;;;;;;1.58;1.37;;;;;;;2.34;80.96;97140.31;299395;217;63009;-57
2021/03/05 05:30:06;;;;;;;2.20;2.00;;;;;;;2.31;81.03;97140.78;299395;235;63005;-56
2021/03/05 05:35:09;;;;;;;1.55;1.45;;;;;;;2.37;80.85;97144.38;299395;224;63009;-56
2021/03/05 05:40:11;;;;;;;2.03;1.87;;;;;;;2.43;79.55;97144.25;299395;257;63004;-56
2021/03/05 05:45:12;;;;;;;1.80;1.70;;;;;;;2.37;80.72;97145.19;299395;216;63009;-57
2021/03/05 05:50:13;;;;;;;1.52;1.42;;;;;;;2.31;80.27;97154.97;299395;243;63005;-57
2021/03/05 05:55:15;;;;;;;1.05;1.05;;;;;;;2.31;80.28;97156.84;299395;202;63009;-59
2021/03/05 06:00:17;;;;;;;0.90;0.90;;;;;;;2.25;79.52;97157.78;299395;249;63005;-59
2021/03/05 06:05:18;;;;;;;1.48;1.25;;;;;;;2.19;79.63;97156.03;299395;275;63009;-57
2021/03/05 06:10:19;;;;;;;0.85;0.85;;;;;;;2.17;79.71;97171.50;299394;228;64009;-57
2021/03/05 06:15:21;;;;;;;1.02;1.02;;;;;;;2.16;79.79;97175.22;299395;204;63009;-58
2021/03/05 06:20:22;;;;;;;0.80;0.80;;;;;;;2.20;80.16;97176.38;299395;201;63005;-55
2021/03/05 06:25:43;;;;;;;2.95;1.08;;;;;;;2.23;79.57;97178.59;299395;208;63009;-57
2021/03/05 06:30:45;;;;;;;0.80;0.80;;;;;;;2.25;79.76;97195.25;299395;210;63005;-57
2021/03/05 06:35:46;;;;;;;1.75;1.65;;;;;;;2.21;79.76;97194.09;299395;202;63030;-59
2021/03/05 06:40:54;;;;;;;6.05;5.53;;;;;;;2.13;79.86;97207.81;299395;260;63004;-63
2021/03/05 06:45:56;;;;;;;0.80;0.80;;;;;;;2.06;80.65;97215.16;299395;196;63009;-56
2021/03/05 06:51:09;;;;;;;1.08;0.95;;;;;;;2.19;79.79;97228.31;299395;220;63005;-58
2021/03/05 06:56:28;;;;;;;0.80;0.80;;;;;;;2.14;79.84;97230.84;299395;328;63009;-57
2021/03/05 07:01:29;;;;;;;4.95;1.37;;;;;;;2.13;79.98;97231.91;299395;220;63004;-55
2021/03/05 07:06:30;;;;;;;1.10;1.10;;;;;;;1.94;81.31;97242.69;299395;255;63009;-57
2021/03/05 07:11:44;;;;;;;0.80;0.80;;;;;;;2.11;80.88;97250.03;299395;226;63008;-56
2021/03/05 07:16:47;;;;;;;1.42;1.42;;;;;;;2.25;80.16;97257.66;299395;202;63009;-57
2021/03/05 07:21:51;;;;;;;0.80;0.80;;;;;;;2.24;80.44;97257.87;299395;285;63005;-56
2021/03/05 07:26:53;;;;;;;0.80;0.80;;;;;;;2.24;80.18;97265.91;299395;214;63008;-57
2021/03/05 07:32:09;;;;;;;0.80;0.80;;;;;;;2.20;81.51;97272.78;299395;233;63004;-56
2021/03/05 07:37:11;;;;;;;;;;;;;;;2.30;80.48;97279.19;299996;983;6004;-56
2021/03/05 07:42:14;;;;;;;0.80;0.80;;;;;;;2.32;80.40;97289.69;299400;229;63009;-57
2021/03/05 07:47:16;;;;;;;0.70;0.70;;;;;;;2.22;80.78;97297.44;299395;238;63009;-57
2021/03/05 07:52:20;;;;;;;0.80;0.80;;;;;;;2.17;81.22;97297.31;299395;206;63009;-57
2021/03/05 07:57:45;;;;;;;0.80;0.80;;;;;;;2.41;80.89;97304.38;299395;199;63005;-57
2021/03/05 08:03:02;;;;;;;0.80;0.80;;;;;;;2.47;80.64;97306.09;299479;322;125021;-58
2021/03/05 08:08:18;;;;;;;1.15;1.15;;;;;;;2.67;78.88;97311.97;299395;202;63005;-56
2021/03/05 08:13:55;;;;;;;;;;;;;;;2.57;79.17;97317.06;299996;983;6019;-57
2021/03/05 08:19:53;;;;;;;0.70;0.70;;;;;;;2.51;78.58;97328.69;299422;213;63008;-57
2021/03/05 08:25:40;;;;;;;3.80;1.17;;;;;;;2.54;78.52;97328.25;299373;290;63008;-56
2021/03/05 08:30:42;;;;;;;0.90;0.90;;;;;;;2.62;78.40;97329.78;299395;314;63009;-57
2021/03/05 08:35:45;;;;;;;0.80;0.80;;;;;;;2.35;79.95;97340.91;299395;225;63005;-57
2021/03/05 08:40:53;;;;;;;0.80;0.80;;;;;;;2.66;78.41;97345.16;299395;246;63008;-54
2021/03/05 08:46:06;;;;;;;1.42;1.42;;;;;;;2.68;78.27;97350.28;299395;354;63004;-59
2021/03/05 08:51:19;;;;;;;0.77;0.77;;;;;;;2.54;79.48;97355.03;299395;275;63009;-58
2021/03/05 08:56:27;;;;;;;1.60;1.60;;;;;;;2.64;78.50;97357.97;299395;322;63004;-56
2021/03/05 09:01:41;;;;;;;0.80;0.80;;;;;;;2.68;78.39;97358.31;299395;346;63009;-56
2021/03/05 09:06:56;;;;;;;0.80;0.80;;;;;;;2.64;78.14;97371.37;299395;331;63005;-55
2021/03/05 09:12:27;;;;;;;0.85;0.85;;;;;;;2.63;77.86;97369.72;299417;200;63009;-58
2021/03/05 09:17:30;;;;;;;0.73;0.73;;;;;;;2.53;78.18;97364.13;299395;267;63004;-57
2021/03/05 09:22:34;;;;;;;1.35;1.30;;;;;;;2.58;77.62;97372.28;299395;220;63009;-58
2021/03/05 09:27:40;;;;;;;0.80;0.80;;;;;;;2.52;77.72;97377.75;299417;241;63005;-57
2021/03/05 09:33:07;;;;;;;0.80;0.80;;;;;;;2.62;77.74;97389.53;299395;238;63008;-59
2021/03/05 09:38:08;;;;;;;0.80;0.80;;;;;;;2.49;78.73;97381.69;299396;224;63004;-56
2021/03/05 09:43:16;;;;;;;0.80;0.80;;;;;;;2.64;78.35;97382.09;299396;213;63009;-57
2021/03/05 09:48:34;;;;;;;0.70;0.70;;;;;;;2.83;77.83;97387.34;299396;216;63004;-57
2021/03/05 09:53:38;;;;;;;0.70;0.70;;;;;;;2.63;78.89;97393.03;299396;206;63009;-57
2021/03/05 09:58:58;;;;;;;0.80;0.80;;;;;;;3.09;75.85;97408.38;299418;230;63005;-58
2021/03/05 10:04:03;;;;;;;0.70;0.70;;;;;;;3.00;74.67;97412.44;299396;219;63009;-56
2021/03/05 10:09:12;;;;;;;0.80;0.80;;;;;;;3.16;74.56;97411.72;299418;225;63004;-58
2021/03/05 10:14:24;;;;;;;0.70;0.70;;;;;;;2.96;75.88;97419.28;299396;235;63009;-57
2021/03/05 10:19:29;;;;;;;0.70;0.70;;;;;;;3.04;75.96;97413.59;299397;213;63005;-57
2021/03/05 10:24:30;;;;;;;0.80;0.80;;;;;;;3.22;73.48;97421.53;299397;210;63008;-57
2021/03/05 10:30:04;;;;;;;0.70;0.70;;;;;;;3.24;74.35;97427.47;299397;218;63004;-56
2021/03/05 10:35:16;;;;;;;0.70;0.70;;;;;;;3.35;74.12;97425.84;299396;210;63009;-55
2021/03/05 10:40:20;;;;;;;0.70;0.70;;;;;;;3.46;72.89;97434.94;299396;260;63004;-58
2021/03/05 10:45:22;;;;;;;0.80;0.80;;;;;;;3.34;72.63;97434.94;299418;210;63009;-57
2021/03/05 10:50:23;;;;;;;3.05;2.95;;;;;;;3.28;72.67;97442.06;299396;198;63005;-57
2021/03/05 10:55:23;;;;;;;1.55;1.55;;;;;;;3.34;72.93;97457.22;299396;212;63009;-57
2021/03/05 11:00:26;;;;;;;0.80;0.80;;;;;;;2.96;74.77;97456.81;299396;237;63004;-53
2021/03/05 11:05:28;;;;;;;1.70;1.60;;;;;;;3.21;73.65;97457.44;299396;368;63009;-53
2021/03/05 11:10:31;;;;;;;0.80;0.80;;;;;;;3.27;72.91;97456.50;299396;284;63005;-58
2021/03/05 11:15:32;;;;;;;0.80;0.80;;;;;;;3.34;72.49;97462.56;299379;345;125017;-56
2021/03/05 11:20:34;;;;;;;0.80;0.80;;;;;;;3.20;73.43;97466.53;299397;229;63000;-57
2021/03/05 11:25:35;;;;;;;0.80;0.80;;;;;;;3.67;71.08;97466.53;299395;246;63005;-57
2021/03/05 11:30:36;;;;;;;0.90;0.90;;;;;;;3.59;69.10;97469.56;299395;220;63000;-57
2021/03/05 11:35:41;;;;;;;0.70;0.70;;;;;;;3.22;71.51;97480.53;299395;242;63005;-57
2021/03/05 11:40:43;;;;;;;0.70;0.70;;;;;;;3.25;71.64;97488.09;299417;225;63001;-54
2021/03/05 11:45:44;;;;;;;0.80;0.80;;;;;;;2.92;74.10;97490.50;299395;222;63004;-53
2021/03/05 11:50:45;;;;;;;0.88;0.88;;;;;;;2.80;73.80;97487.78;299395;256;63000;-54
2021/03/05 11:55:46;;;;;;;0.80;0.80;;;;;;;2.89;72.24;97485.59;299395;219;63005;-55
2021/03/05 12:00:48;;;;;;;0.70;0.70;;;;;;;2.86;73.65;97489.53;299395;202;63000;-57
2021/03/05 12:05:49;;;;;;;0.70;0.70;;;;;;;3.26;70.18;97487.06;299395;209;63005;-56
2021/03/05 12:10:51;;;;;;;0.77;0.77;;;;;;;3.43;69.42;97486.37;299394;229;64009;-57
2021/03/05 12:15:52;;;;;;;0.70;0.70;;;;;;;3.37;70.28;97486.25;299395;246;63009;-57
2021/03/05 12:20:53;;;;;;;0.80;0.80;;;;;;;3.50;68.37;97482.50;299395;199;63005;-57
2021/03/05 12:25:54;;;;;;;0.70;0.70;;;;;;;3.30;70.46;97482.88;299395;211;63009;-58
2021/03/05 12:30:55;;;;;;;0.80;0.80;;;;;;;3.54;68.77;97480.19;299395;228;63004;-57
2021/03/05 12:35:56;;;;;;;0.80;0.80;;;;;;;3.50;69.26;97479.00;299395;208;63009;-57
2021/03/05 12:40:56;;;;;;;2.58;1.50;;;;;;;3.78;67.14;97468.41;299395;239;63005;-56
2021/03/05 12:45:59;;;;;;;12.80;4.22;;;;;;;3.73;67.37;97476.34;299393;226;64004;-57
2021/03/05 12:51:00;;;;;;;1.75;1.60;;;;;;;3.63;67.42;97474.25;299395;216;63010;-57
2021/03/05 12:56:02;;;;;;;0.70;0.70;;;;;;;3.69;66.99;97485.91;299395;200;63009;-58
2021/03/05 13:01:04;;;;;;;0.80;0.80;;;;;;;3.56;67.77;97486.94;299395;259;63004;-57
2021/03/05 13:06:05;;;;;;;0.80;0.80;;;;;;;3.46;69.93;97496.66;299395;211;63021;-56
2021/03/05 13:11:07;;;;;;;0.70;0.70;;;;;;;3.72;67.22;97490.00;299395;230;63013;-56
2021/03/05 13:16:09;;;;;;;0.70;0.70;;;;;;;3.73;68.23;97481.72;299395;202;63008;-58
2021/03/05 13:21:12;;;;;;;0.70;0.70;;;;;;;3.46;69.32;97494.78;299395;198;63004;-59
2021/03/05 13:26:14;;;;;;;0.70;0.70;;;;;;;3.87;67.97;97488.44;299395;204;63009;-58
2021/03/05 13:31:15;;;;;;;0.70;0.70;;;;;;;3.94;65.93;97489.12;299395;210;63004;-58
2021/03/05 13:36:18;;;;;;;0.80;0.80;;;;;;;3.47;69.22;97507.13;299395;203;63009;-58
2021/03/05 13:41:19;;;;;;;0.73;0.73;;;;;;;3.77;67.33;97504.34;299395;223;63005;-58
2021/03/05 13:46:19;;;;;;;0.70;0.70;;;;;;;3.95;67.08;97512.25;299395;234;63008;-60
2021/03/05 13:51:21;;;;;;;0.98;0.98;;;;;;;4.01;65.76;97522.06;299395;208;63004;-57
2021/03/05 13:56:22;;;;;;;0.70;0.70;;;;;;;3.76;67.36;97518.81;299395;227;63009;-58
2021/03/05 14:01:23;;;;;;;0.75;0.75;;;;;;;3.98;66.90;97521.72;299395;232;63004;-60
2021/03/05 14:06:25;;;;;;;0.70;0.70;;;;;;;3.80;67.85;97536.09;299395;212;63009;-57
2021/03/05 14:11:26;;;;;;;0.70;0.70;;;;;;;3.62;70.24;97544.25;299395;240;63005;-57
2021/03/05 14:16:27;;;;;;;0.70;0.70;;;;;;;3.89;67.07;97548.09;299395;221;63009;-58
2021/03/05 14:21:28;;;;;;;0.70;0.70;;;;;;;3.52;69.39;97552.03;299394;214;64004;-54
2021/03/05 14:26:29;;;;;;;0.70;0.70;;;;;;;3.34;71.57;97567.19;299395;275;63009;-58
2021/03/05 14:31:33;;;;;;;0.70;0.70;;;;;;;3.19;73.36;97576.69;299395;229;63005;-59
2021/03/05 14:36:35;;;;;;;0.70;0.70;;;;;;;3.04;73.37;97574.47;299417;202;63009;-57
2021/03/05 14:41:37;;;;;;;0.70;0.70;;;;;;;3.31;70.99;97583.75;299395;305;63005;-57
2021/03/05 14:46:39;;;;;;;0.70;0.70;;;;;;;3.19;71.90;97598.97;299395;247;63009;-58
2021/03/05 14:51:40;;;;;;;0.70;0.70;;;;;;;3.19;71.93;97604.34;299395;218;63004;-55
2021/03/05 14:56:41;;;;;;;1.70;1.70;;;;;;;3.43;70.67;97610.59;299395;208;63009;-59
2021/03/05 15:01:43;;;;;;;0.70;0.70;;;;;;;3.09;72.39;97612.12;299395;212;63005;-58
2021/03/05 15:06:44;;;;;;;0.70;0.70;;;;;;;3.15;72.45;97611.19;299395;219;63009;-54
2021/03/05 15:11:45;;;;;;;0.70;0.70;;;;;;;3.16;72.52;97617.38;299395;198;63005;-58
2021/03/05 15:16:45;;;;;;;0.70;0.70;;;;;;;3.27;72.80;97617.44;299395;216;63005;-58
2021/03/05 15:21:50;;;;;;;0.70;0.70;;;;;;;3.10;74.01;97629.03;299395;225;63004;-57
2021/03/05 15:26:51;;;;;;;0.70;0.70;;;;;;;3.26;73.92;97637.25;299417;213;63009;-57
2021/03/05 15:31:53;;;;;;;0.70;0.70;;;;;;;3.17;74.19;97643.16;299395;215;63005;-56
2021/03/05 15:36:55;;;;;;;0.70;0.70;;;;;;;3.19;74.39;97641.88;299395;205;63009;-57
2021/03/05 15:41:55;;;;;;;0.70;0.70;;;;;;;3.04;74.28;97646.84;299395;218;63005;-56
2021/03/05 15:46:56;;;;;;;0.70;0.70;;;;;;;3.06;74.54;97651.97;299395;211;63021;-57
2021/03/05 15:52:01;;;;;;;0.70;0.70;;;;;;;3.09;74.61;97663.09;299395;236;63004;-55
2021/03/05 15:57:02;;;;;;;0.70;0.70;;;;;;;2.92;74.94;97680.81;299417;238;63009;-57
2021/03/05 16:02:04;;;;;;;0.70;0.70;;;;;;;2.93;72.52;97690.50;299395;270;63005;-57
2021/03/05 16:07:05;;;;;;;3.45;3.35;;;;;;;2.37;74.12;97707.59;299395;233;63008;-57
2021/03/05 16:12:09;;;;;;;0.70;0.70;;;;;;;2.25;74.96;97706.66;299394;221;64004;-54
2021/03/05 16:17:11;;;;;;;0.80;0.80;;;;;;;2.23;73.77;97716.78;299417;211;63019;-57
2021/03/05 16:22:12;;;;;;;0.70;0.70;;;;;;;1.90;74.60;97725.91;299395;229;63008;-57
2021/03/05 16:27:15;;;;;;;0.80;0.80;;;;;;;1.86;75.27;97731.91;299395;226;63009;-55
2021/03/05 16:32:16;;;;;;;0.70;0.70;;;;;;;1.89;73.96;97737.63;299395;198;63005;-57
2021/03/05 16:37:18;;;;;;;0.80;0.80;;;;;;;1.75;74.71;97735.25;299395;365;63008;-57
2021/03/05 16:42:19;;;;;;;0.70;0.70;;;;;;;1.72;74.04;97741.91;299395;196;63004;-55
2021/03/05 16:47:20;;;;;;;0.80;0.80;;;;;;;1.73;74.44;97754.22;299395;269;63009;-57
2021/03/05 16:52:21;;;;;;;0.70;0.70;;;;;;;1.74;74.41;97755.84;299395;213;63004;-57
2021/03/05 16:57:24;;;;;;;0.80;0.80;;;;;;;1.77;75.07;97763.44;299395;203;63009;-57
2021/03/05 17:02:26;;;;;;;0.80;0.80;;;;;;;1.74;75.26;97766.53;299395;255;63005;-54
2021/03/05 17:07:31;;;;;;;0.73;0.73;;;;;;;1.79;76.37;97772.06;299395;220;63008;-58
2021/03/05 17:12:32;;;;;;;0.80;0.80;;;;;;;1.81;76.36;97778.03;299417;196;63004;-54
2021/03/05 17:17:38;;;;;;;0.70;0.70;;;;;;;1.80;76.30;97787.09;299395;205;63009;-55
2021/03/05 17:22:39;;;;;;;0.75;0.75;;;;;;;1.90;76.77;97806.19;299395;205;63010;-54
2021/03/05 17:27:41;;;;;;;0.70;0.70;;;;;;;1.87;76.65;97813.81;299395;198;63009;-55
2021/03/05 17:32:42;;;;;;;0.70;0.70;;;;;;;1.99;77.04;97825.50;299395;359;63005;-57
2021/03/05 17:37:43;;;;;;;0.70;0.70;;;;;;;1.99;76.77;97820.97;299395;206;63009;-54
2021/03/05 17:42:44;;;;;;;0.70;0.70;;;;;;;2.02;76.21;97833.09;299395;212;63012;-58
2021/03/05 17:47:49;;;;;;;0.80;0.80;;;;;;;1.92;77.12;97836.25;299395;254;63009;-55
2021/03/05 17:52:51;;;;;;;0.70;0.70;;;;;;;1.85;76.80;97848.81;299395;366;63005;-57
2021/03/05 17:57:52;;;;;;;0.80;0.80;;;;;;;1.80;76.42;97867.37;299394;317;64013;-55
2021/03/05 18:02:54;;;;;;;0.70;0.70;;;;;;;1.87;76.19;97868.16;299395;225;63005;-58
2021/03/05 18:07:55;;;;;;;0.70;0.70;;;;;;;1.94;76.29;97877.00;299395;362;63009;-58
2021/03/05 18:12:57;;;;;;;0.70;0.70;;;;;;;2.03;74.50;97882.09;299395;223;63004;-57
2021/03/05 18:18:01;;;;;;;0.70;0.70;;;;;;;1.91;74.52;97895.31;299395;278;63018;-56
2021/03/05 18:23:03;;;;;;;0.77;0.77;;;;;;;1.80;75.25;97898.66;299417;216;63005;-57
2021/03/05 18:28:05;;;;;;;0.80;0.80;;;;;;;1.81;75.62;97905.66;299395;310;63009;-58
2021/03/05 18:33:07;;;;;;;0.70;0.70;;;;;;;1.78;73.82;97906.91;299395;203;63005;-58
2021/03/05 18:38:09;;;;;;;0.70;0.70;;;;;;;1.71;73.89;97911.47;299395;222;63009;-59
2021/03/05 18:43:10;;;;;;;0.80;0.80;;;;;;;1.70;74.94;97919.72;299395;222;63004;-60
2021/03/05 18:48:12;;;;;;;0.70;0.70;;;;;;;1.64;74.95;97916.03;299395;254;63009;-58
2021/03/05 18:53:13;;;;;;;0.70;0.70;;;;;;;1.58;74.84;97923.03;299395;303;63005;-58
2021/03/05 18:58:15;;;;;;;0.70;0.70;;;;;;;1.47;75.55;97936.22;299395;264;63009;-58
2021/03/05 19:03:16;;;;;;;0.80;0.80;;;;;;;1.36;76.12;97945.75;299395;274;63005;-58
2021/03/05 19:08:17;;;;;;;0.70;0.70;;;;;;;1.29;76.56;97948.41;299395;232;63009;-58
2021/03/05 19:13:18;;;;;;;0.70;0.70;;;;;;;1.22;76.77;97958.28;299395;209;63004;-59
2021/03/05 19:18:20;;;;;;;0.70;0.70;;;;;;;1.25;76.60;97965.06;299395;235;63009;-58
2021/03/05 19:23:21;;;;;;;0.75;0.75;;;;;;;1.16;76.56;97960.97;299395;202;63005;-59
2021/03/05 19:28:21;;;;;;;0.70;0.70;;;;;;;1.12;76.31;97971.25;299395;205;63008;-58
2021/03/05 19:33:22;;;;;;;0.70;0.70;;;;;;;1.09;76.03;97977.00;299395;198;63004;-57
2021/03/05 19:38:23;;;;;;;0.70;0.70;;;;;;;1.03;76.02;97975.19;299395;199;63009;-57
2021/03/05 19:43:25;;;;;;;0.70;0.70;;;;;;;1.01;75.06;97979.91;299395;219;63004;-58
2021/03/05 19:48:26;;;;;;;0.70;0.70;;;;;;;1.08;74.06;97985.22;299395;237;63013;-58
2021/03/05 19:53:28;;;;;;;0.70;0.70;;;;;;;0.99;73.08;97981.97;299395;224;63005;-59
2021/03/05 19:58:29;;;;;;;0.80;0.80;;;;;;;0.99;73.13;97989.97;299395;296;63008;-57
2021/03/05 20:03:30;;;;;;;0.80;0.80;;;;;;;0.77;73.93;97996.50;299395;204;63004;-58
2021/03/05 20:08:32;;;;;;;0.80;0.80;;;;;;;0.78;74.45;98001.66;299395;203;63009;-59
2021/03/05 20:13:33;;;;;;;0.70;0.70;;;;;;;0.67;72.80;98007.62;299394;330;64008;-57
2021/03/05 20:18:34;;;;;;;0.77;0.77;;;;;;;0.75;73.70;98011.91;299395;212;63009;-57
2021/03/05 20:23:35;;;;;;;0.80;0.80;;;;;;;0.64;71.54;98011.50;299395;237;63005;-58
2021/03/05 20:28:36;;;;;;;1.20;1.20;;;;;;;0.56;71.55;98019.72;299395;253;63008;-58
2021/03/05 20:33:37;;;;;;;0.80;0.80;;;;;;;0.52;72.04;98018.47;299395;204;63004;-59
2021/03/05 20:38:38;;;;;;;0.80;0.80;;;;;;;0.41;69.15;98023.53;299395;212;63009;-58
2021/03/05 20:43:39;;;;;;;0.80;0.80;;;;;;;0.45;70.58;98022.94;299395;209;63005;-58
2021/03/05 20:48:41;;;;;;;0.80;0.80;;;;;;;0.43;69.74;98034.84;299395;226;63009;-58
2021/03/05 20:53:42;;;;;;;0.80;0.80;;;;;;;0.39;70.20;98033.59;299395;226;63005;-57
2021/03/05 20:58:43;;;;;;;0.80;0.80;;;;;;;0.35;68.37;98043.84;299394;326;64009;-57
2021/03/05 21:03:44;;;;;;;0.80;0.80;;;;;;;0.28;69.44;98053.72;299395;229;63004;-57
2021/03/05 21:08:45;;;;;;;0.80;0.80;;;;;;;0.26;68.50;98055.75;299395;211;63009;-58
2021/03/05 21:13:47;;;;;;;0.80;0.80;;;;;;;0.22;68.75;98065.19;299395;211;63005;-59
2021/03/05 21:18:48;;;;;;;0.80;0.80;;;;;;;0.20;67.80;98078.72;299395;228;63009;-60
2021/03/05 21:23:48;;;;;;;0.80;0.80;;;;;;;0.38;65.42;98074.69;299395;196;63005;-59
2021/03/05 21:28:49;;;;;;;0.80;0.80;;;;;;;0.31;66.23;98075.50;299395;207;63009;-54
2021/03/05 21:33:54;;;;;;;0.80;0.80;;;;;;;0.19;65.69;98068.25;299395;230;63004;-54
2021/03/05 21:38:55;;;;;;;0.80;0.80;;;;;;;0.15;65.74;98080.31;299422;206;63009;-58
2021/03/05 21:43:56;;;;;;;0.80;0.80;;;;;;;0.15;63.88;98069.66;299395;226;63005;-60
2021/03/05 21:48:57;;;;;;;0.80;0.80;;;;;;;0.08;65.19;98076.78;299395;250;63009;-59
2021/03/05 21:53:58;;;;;;;0.80;0.80;;;;;;;-0.02;65.20;98080.66;299395;202;63012;-59
2021/03/05 21:58:59;;;;;;;0.80;0.80;;;;;;;-0.05;66.17;98086.41;299395;254;63009;-58
2021/03/05 22:04:00;;;;;;;0.80;0.80;;;;;;;-0.09;65.54;98085.12;299395;353;63004;-58
2021/03/05 22:09:01;;;;;;;3.15;2.90;;;;;;;-0.30;65.71;98093.19;299396;231;63009;-55
2021/03/05 22:14:02;;;;;;;0.80;0.80;;;;;;;-0.28;67.32;98091.16;299396;230;63005;-55
2021/03/05 22:19:04;;;;;;;0.80;0.80;;;;;;;-0.37;66.00;98092.34;299396;243;63009;-59
2021/03/05 22:24:08;;;;;;;0.80;0.80;;;;;;;-0.33;66.46;98098.91;299396;221;63005;-59
2021/03/05 22:29:09;;;;;;;0.80;0.80;;;;;;;-0.36;67.40;98102.00;299418;236;63009;-58
2021/03/05 22:34:10;;;;;;;0.80;0.80;;;;;;;-0.46;67.55;98099.66;299396;211;63004;-55
2021/03/05 22:39:11;;;;;;;0.80;0.80;;;;;;;-0.49;66.45;98099.22;299396;204;63023;-59
2021/03/05 22:44:12;;;;;;;0.80;0.80;;;;;;;-0.47;66.63;98103.34;299396;204;63005;-55
2021/03/05 22:49:13;;;;;;;0.80;0.80;;;;;;;-0.55;66.19;98095.47;299396;223;63009;-60
2021/03/05 22:54:15;;;;;;;0.80;0.80;;;;;;;-0.60;67.89;98107.72;299397;317;63005;-58
2021/03/05 22:59:16;;;;;;;0.80;0.80;;;;;;;-0.65;66.40;98088.81;299397;208;63009;-59
2021/03/05 23:04:18;;;;;;;0.80;0.80;;;;;;;-0.64;65.15;98098.44;299396;211;63004;-58
2021/03/05 23:09:19;;;;;;;0.80;0.80;;;;;;;-0.69;66.49;98101.69;299396;377;63009;-58
2021/03/05 23:14:20;;;;;;;0.80;0.80;;;;;;;-0.74;66.33;98090.81;299396;210;63005;-57
2021/03/05 23:19:21;;;;;;;0.80;0.80;;;;;;;-0.79;65.42;98098.56;299396;208;63004;-58
2021/03/05 23:24:22;;;;;;;1.70;1.70;;;;;;;-0.80;64.97;98096.91;299396;272;63005;-58
2021/03/05 23:29:23;;;;;;;0.80;0.80;;;;;;;-0.71;66.55;98112.56;299396;263;63009;-58
2021/03/05 23:34:24;;;;;;;0.80;0.80;;;;;;;-0.69;64.40;98093.69;299397;366;63004;-58
2021/03/05 23:39:27;;;;;;;0.80;0.80;;;;;;;-0.71;63.40;98085.94;299396;208;63009;-57
2021/03/05 23:44:28;;;;;;;0.80;0.80;;;;;;;-0.59;62.13;98093.38;299396;196;63005;-58
2021/03/05 23:49:29;;;;;;;0.80;0.80;;;;;;;-0.68;62.44;98093.50;299397;354;63008;-59
2021/03/05 23:54:33;;;;;;;0.80;0.80;;;;;;;-0.64;61.87;98099.28;299397;224;63004;-58
2021/03/05 23:59:34;;;;;;;0.90;0.90;;;;;;;-0.74;61.83;98096.13;299417;222;63014;-58
